sensor_id;sensor_type;location;lat;lon;timestamp;P1;durP1;ratioP1;P2;durP2;ratioP2
25627;SDS011;40915;50.826;4.356;2022-11-20T00:01:46;55.33;;;30.20;;
25627;SDS011;40915;50.826;4.356;2022-11-20T00:04:12;48.97;;;29.13;;
25627;SDS011;40915;50.826;4.356;2022-11-20T00:06:38;51.07;;;29.80;;
25627;SDS011;40915;50.826;4.356;2022-11-20T00:09:09;54.73;;;28.97;;
25627;SDS011;40915;50.826;4.356;2022-11-20T00:11:35;63.20;;;33.03;;
25627;SDS011;40915;50.826;4.356;2022-11-20T00:14:01;49.80;;;27.97;;
25627;SDS011;40915;50.826;4.356;2022-11-20T00:16:28;45.33;;;26.30;;
25627;SDS011;40915;50.826;4.356;2022-11-20T00:18:55;51.50;;;29.47;;
25627;SDS011;40915;50.826;4.356;2022-11-20T00:21:22;58.87;;;32.93;;
25627;SDS011;40915;50.826;4.356;2022-11-20T00:23:49;49.83;;;28.70;;
25627;SDS011;40915;50.826;4.356;2022-11-20T00:26:16;49.30;;;27.53;;
25627;SDS011;40915;50.826;4.356;2022-11-20T00:28:43;49.63;;;27.93;;
25627;SDS011;40915;50.826;4.356;2022-11-20T00:31:14;47.57;;;27.73;;
25627;SDS011;40915;50.826;4.356;2022-11-20T00:33:40;50.03;;;28.93;;
25627;SDS011;40915;50.826;4.356;2022-11-20T00:36:07;47.17;;;27.50;;
25627;SDS011;40915;50.826;4.356;2022-11-20T00:38:34;49.27;;;27.53;;
25627;SDS011;40915;50.826;4.356;2022-11-20T00:41:01;53.37;;;27.23;;
25627;SDS011;40915;50.826;4.356;2022-11-20T00:43:27;47.43;;;27.90;;
25627;SDS011;40915;50.826;4.356;2022-11-20T00:45:57;45.53;;;27.17;;
25627;SDS011;40915;50.826;4.356;2022-11-20T00:48:23;46.87;;;28.13;;
25627;SDS011;40915;50.826;4.356;2022-11-20T00:50:49;49.07;;;29.37;;
25627;SDS011;40915;50.826;4.356;2022-11-20T00:53:15;46.87;;;27.23;;
25627;SDS011;40915;50.826;4.356;2022-11-20T00:55:41;45.20;;;25.93;;
25627;SDS011;40915;50.826;4.356;2022-11-20T00:58:06;46.07;;;27.43;;
25627;SDS011;40915;50.826;4.356;2022-11-20T01:00:33;48.00;;;27.33;;
25627;SDS011;40915;50.826;4.356;2022-11-20T01:02:59;50.77;;;28.40;;
25627;SDS011;40915;50.826;4.356;2022-11-20T01:05:25;46.07;;;26.37;;
25627;SDS011;40915;50.826;4.356;2022-11-20T01:07:51;47.20;;;27.97;;
25627;SDS011;40915;50.826;4.356;2022-11-20T01:10:17;44.03;;;27.07;;
25627;SDS011;40915;50.826;4.356;2022-11-20T01:12:43;48.50;;;26.87;;
25627;SDS011;40915;50.826;4.356;2022-11-20T01:15:29;43.03;;;27.70;;
25627;SDS011;40915;50.826;4.356;2022-11-20T01:17:55;45.10;;;27.27;;
25627;SDS011;40915;50.826;4.356;2022-11-20T01:20:21;48.20;;;27.70;;
25627;SDS011;40915;50.826;4.356;2022-11-20T01:22:47;45.30;;;26.00;;
25627;SDS011;40915;50.826;4.356;2022-11-20T01:25:13;45.60;;;27.10;;
25627;SDS011;40915;50.826;4.356;2022-11-20T01:27:39;45.60;;;25.50;;
25627;SDS011;40915;50.826;4.356;2022-11-20T01:30:05;48.07;;;27.93;;
25627;SDS011;40915;50.826;4.356;2022-11-20T01:32:31;45.57;;;27.00;;
25627;SDS011;40915;50.826;4.356;2022-11-20T01:34:57;44.23;;;26.63;;
25627;SDS011;40915;50.826;4.356;2022-11-20T01:37:23;43.80;;;25.93;;
25627;SDS011;40915;50.826;4.356;2022-11-20T01:39:49;47.83;;;27.43;;
25627;SDS011;40915;50.826;4.356;2022-11-20T01:42:15;43.43;;;25.90;;
25627;SDS011;40915;50.826;4.356;2022-11-20T01:45:00;49.50;;;27.40;;
25627;SDS011;40915;50.826;4.356;2022-11-20T01:47:28;50.43;;;27.80;;
25627;SDS011;40915;50.826;4.356;2022-11-20T01:50:00;51.77;;;27.97;;
25627;SDS011;40915;50.826;4.356;2022-11-20T01:52:40;45.67;;;27.40;;
25627;SDS011;40915;50.826;4.356;2022-11-20T01:55:07;51.70;;;27.30;;
25627;SDS011;40915;50.826;4.356;2022-11-20T01:57:34;47.40;;;27.90;;
25627;SDS011;40915;50.826;4.356;2022-11-20T02:00:11;50.20;;;28.73;;
25627;SDS011;40915;50.826;4.356;2022-11-20T02:02:37;49.77;;;27.10;;
25627;SDS011;40915;50.826;4.356;2022-11-20T02:05:09;50.17;;;27.87;;
25627;SDS011;40915;50.826;4.356;2022-11-20T02:07:37;49.87;;;26.83;;
25627;SDS011;40915;50.826;4.356;2022-11-20T02:10:03;48.27;;;26.67;;
25627;SDS011;40915;50.826;4.356;2022-11-20T02:12:29;53.43;;;28.77;;
25627;SDS011;40915;50.826;4.356;2022-11-20T02:15:14;51.17;;;28.03;;
25627;SDS011;40915;50.826;4.356;2022-11-20T02:17:40;52.77;;;28.27;;
25627;SDS011;40915;50.826;4.356;2022-11-20T02:20:06;53.57;;;29.20;;
25627;SDS011;40915;50.826;4.356;2022-11-20T02:22:38;55.03;;;29.10;;
25627;SDS011;40915;50.826;4.356;2022-11-20T02:25:07;49.63;;;27.60;;
25627;SDS011;40915;50.826;4.356;2022-11-20T02:27:33;49.43;;;26.07;;
25627;SDS011;40915;50.826;4.356;2022-11-20T02:30:00;49.23;;;26.23;;
25627;SDS011;40915;50.826;4.356;2022-11-20T02:34:53;47.67;;;26.27;;
25627;SDS011;40915;50.826;4.356;2022-11-20T02:37:20;53.27;;;26.47;;
25627;SDS011;40915;50.826;4.356;2022-11-20T02:39:47;48.40;;;26.53;;
25627;SDS011;40915;50.826;4.356;2022-11-20T02:42:13;49.73;;;26.73;;
25627;SDS011;40915;50.826;4.356;2022-11-20T02:44:39;48.77;;;26.60;;
25627;SDS011;40915;50.826;4.356;2022-11-20T02:47:05;47.10;;;25.03;;
25627;SDS011;40915;50.826;4.356;2022-11-20T02:49:31;48.53;;;26.47;;
25627;SDS011;40915;50.826;4.356;2022-11-20T02:51:58;49.13;;;25.33;;
25627;SDS011;40915;50.826;4.356;2022-11-20T02:54:24;51.53;;;25.47;;
25627;SDS011;40915;50.826;4.356;2022-11-20T02:56:50;51.10;;;26.80;;
25627;SDS011;40915;50.826;4.356;2022-11-20T02:59:16;49.30;;;26.63;;
25627;SDS011;40915;50.826;4.356;2022-11-20T03:01:42;52.50;;;26.73;;
25627;SDS011;40915;50.826;4.356;2022-11-20T03:04:08;49.73;;;25.20;;
25627;SDS011;40915;50.826;4.356;2022-11-20T03:06:34;48.30;;;25.23;;
25627;SDS011;40915;50.826;4.356;2022-11-20T03:09:00;49.80;;;25.67;;
25627;SDS011;40915;50.826;4.356;2022-11-20T03:11:26;45.10;;;23.70;;
25627;SDS011;40915;50.826;4.356;2022-11-20T03:13:53;43.67;;;24.17;;
25627;SDS011;40915;50.826;4.356;2022-11-20T03:16:20;46.47;;;24.57;;
25627;SDS011;40915;50.826;4.356;2022-11-20T03:18:46;44.07;;;25.23;;
25627;SDS011;40915;50.826;4.356;2022-11-20T03:21:12;48.43;;;24.87;;
25627;SDS011;40915;50.826;4.356;2022-11-20T03:23:39;48.27;;;23.07;;
25627;SDS011;40915;50.826;4.356;2022-11-20T03:26:18;42.67;;;22.63;;
25627;SDS011;40915;50.826;4.356;2022-11-20T03:28:49;45.27;;;23.60;;
25627;SDS011;40915;50.826;4.356;2022-11-20T03:31:16;44.33;;;22.50;;
25627;SDS011;40915;50.826;4.356;2022-11-20T03:33:42;44.03;;;22.90;;
25627;SDS011;40915;50.826;4.356;2022-11-20T03:36:09;42.50;;;22.73;;
25627;SDS011;40915;50.826;4.356;2022-11-20T03:38:35;46.20;;;23.47;;
25627;SDS011;40915;50.826;4.356;2022-11-20T03:41:12;50.93;;;23.77;;
25627;SDS011;40915;50.826;4.356;2022-11-20T03:43:38;43.60;;;23.20;;
25627;SDS011;40915;50.826;4.356;2022-11-20T03:46:04;42.47;;;23.07;;
25627;SDS011;40915;50.826;4.356;2022-11-20T03:48:31;42.33;;;22.23;;
25627;SDS011;40915;50.826;4.356;2022-11-20T03:51:13;45.17;;;22.47;;
25627;SDS011;40915;50.826;4.356;2022-11-20T03:53:40;42.60;;;22.97;;
25627;SDS011;40915;50.826;4.356;2022-11-20T03:56:06;43.17;;;22.30;;
25627;SDS011;40915;50.826;4.356;2022-11-20T03:58:32;41.17;;;22.53;;
25627;SDS011;40915;50.826;4.356;2022-11-20T04:01:04;43.60;;;22.53;;
25627;SDS011;40915;50.826;4.356;2022-11-20T04:03:30;44.30;;;22.80;;
25627;SDS011;40915;50.826;4.356;2022-11-20T04:06:01;43.00;;;21.80;;
25627;SDS011;40915;50.826;4.356;2022-11-20T04:08:27;44.30;;;22.43;;
25627;SDS011;40915;50.826;4.356;2022-11-20T04:10:54;42.53;;;22.37;;
25627;SDS011;40915;50.826;4.356;2022-11-20T04:13:20;47.00;;;23.60;;
25627;SDS011;40915;50.826;4.356;2022-11-20T04:15:46;48.70;;;24.20;;
25627;SDS011;40915;50.826;4.356;2022-11-20T04:18:12;45.40;;;23.67;;
25627;SDS011;40915;50.826;4.356;2022-11-20T04:20:38;46.37;;;24.33;;
25627;SDS011;40915;50.826;4.356;2022-11-20T04:23:04;47.10;;;23.47;;
25627;SDS011;40915;50.826;4.356;2022-11-20T04:25:30;48.27;;;23.57;;
25627;SDS011;40915;50.826;4.356;2022-11-20T04:27:56;47.20;;;23.97;;
25627;SDS011;40915;50.826;4.356;2022-11-20T04:30:22;47.90;;;24.20;;
25627;SDS011;40915;50.826;4.356;2022-11-20T04:32:48;46.80;;;23.87;;
25627;SDS011;40915;50.826;4.356;2022-11-20T04:35:13;45.30;;;23.57;;
25627;SDS011;40915;50.826;4.356;2022-11-20T04:37:39;45.93;;;23.03;;
25627;SDS011;40915;50.826;4.356;2022-11-20T04:40:06;54.57;;;24.57;;
25627;SDS011;40915;50.826;4.356;2022-11-20T04:42:32;49.00;;;24.73;;
25627;SDS011;40915;50.826;4.356;2022-11-20T04:44:58;54.57;;;24.80;;
25627;SDS011;40915;50.826;4.356;2022-11-20T04:47:24;54.93;;;25.20;;
25627;SDS011;40915;50.826;4.356;2022-11-20T04:49:50;53.77;;;24.97;;
25627;SDS011;40915;50.826;4.356;2022-11-20T04:52:16;53.13;;;25.67;;
25627;SDS011;40915;50.826;4.356;2022-11-20T04:54:42;53.97;;;26.20;;
25627;SDS011;40915;50.826;4.356;2022-11-20T04:57:08;50.83;;;24.20;;
25627;SDS011;40915;50.826;4.356;2022-11-20T04:59:34;58.10;;;25.50;;
25627;SDS011;40915;50.826;4.356;2022-11-20T05:02:00;58.33;;;25.53;;
25627;SDS011;40915;50.826;4.356;2022-11-20T05:04:27;59.97;;;26.73;;
25627;SDS011;40915;50.826;4.356;2022-11-20T05:06:53;54.00;;;26.10;;
25627;SDS011;40915;50.826;4.356;2022-11-20T05:09:19;59.37;;;26.30;;
25627;SDS011;40915;50.826;4.356;2022-11-20T05:11:45;59.33;;;26.43;;
25627;SDS011;40915;50.826;4.356;2022-11-20T05:14:11;60.40;;;27.30;;
25627;SDS011;40915;50.826;4.356;2022-11-20T05:16:37;62.37;;;27.20;;
25627;SDS011;40915;50.826;4.356;2022-11-20T05:19:03;55.83;;;26.27;;
25627;SDS011;40915;50.826;4.356;2022-11-20T05:21:32;62.70;;;27.57;;
25627;SDS011;40915;50.826;4.356;2022-11-20T05:23:58;66.10;;;28.63;;
25627;SDS011;40915;50.826;4.356;2022-11-20T05:26:24;66.23;;;27.73;;
25627;SDS011;40915;50.826;4.356;2022-11-20T05:28:50;60.77;;;26.43;;
25627;SDS011;40915;50.826;4.356;2022-11-20T05:31:21;58.93;;;26.90;;
25627;SDS011;40915;50.826;4.356;2022-11-20T05:33:47;66.17;;;27.60;;
25627;SDS011;40915;50.826;4.356;2022-11-20T05:36:13;57.07;;;26.70;;
25627;SDS011;40915;50.826;4.356;2022-11-20T05:38:40;60.87;;;27.17;;
25627;SDS011;40915;50.826;4.356;2022-11-20T05:41:07;58.87;;;26.33;;
25627;SDS011;40915;50.826;4.356;2022-11-20T05:43:34;58.37;;;26.60;;
25627;SDS011;40915;50.826;4.356;2022-11-20T05:46:00;61.67;;;27.87;;
25627;SDS011;40915;50.826;4.356;2022-11-20T05:48:26;55.67;;;26.43;;
25627;SDS011;40915;50.826;4.356;2022-11-20T05:50:53;60.73;;;27.83;;
25627;SDS011;40915;50.826;4.356;2022-11-20T05:53:19;66.00;;;27.97;;
25627;SDS011;40915;50.826;4.356;2022-11-20T05:55:45;65.50;;;28.60;;
25627;SDS011;40915;50.826;4.356;2022-11-20T05:58:11;61.97;;;27.57;;
25627;SDS011;40915;50.826;4.356;2022-11-20T06:00:37;70.70;;;28.97;;
25627;SDS011;40915;50.826;4.356;2022-11-20T06:03:03;68.27;;;29.00;;
25627;SDS011;40915;50.826;4.356;2022-11-20T06:05:29;73.70;;;28.57;;
25627;SDS011;40915;50.826;4.356;2022-11-20T06:07:55;68.13;;;28.53;;
25627;SDS011;40915;50.826;4.356;2022-11-20T06:10:21;67.47;;;28.90;;
25627;SDS011;40915;50.826;4.356;2022-11-20T06:12:47;67.83;;;27.67;;
25627;SDS011;40915;50.826;4.356;2022-11-20T06:15:13;67.10;;;27.13;;
25627;SDS011;40915;50.826;4.356;2022-11-20T06:17:39;72.77;;;28.17;;
25627;SDS011;40915;50.826;4.356;2022-11-20T06:20:05;69.80;;;28.07;;
25627;SDS011;40915;50.826;4.356;2022-11-20T06:22:32;65.67;;;26.83;;
25627;SDS011;40915;50.826;4.356;2022-11-20T06:24:58;72.90;;;28.23;;
25627;SDS011;40915;50.826;4.356;2022-11-20T06:27:24;71.70;;;29.00;;
25627;SDS011;40915;50.826;4.356;2022-11-20T06:29:50;69.47;;;27.83;;
25627;SDS011;40915;50.826;4.356;2022-11-20T06:32:16;66.83;;;27.10;;
25627;SDS011;40915;50.826;4.356;2022-11-20T06:34:42;64.33;;;27.63;;
25627;SDS011;40915;50.826;4.356;2022-11-20T06:37:08;65.97;;;27.93;;
25627;SDS011;40915;50.826;4.356;2022-11-20T06:39:34;64.27;;;27.17;;
25627;SDS011;40915;50.826;4.356;2022-11-20T06:42:00;67.93;;;29.10;;
25627;SDS011;40915;50.826;4.356;2022-11-20T06:44:26;66.60;;;26.80;;
25627;SDS011;40915;50.826;4.356;2022-11-20T06:46:52;64.93;;;27.63;;
25627;SDS011;40915;50.826;4.356;2022-11-20T06:49:18;66.43;;;28.43;;
25627;SDS011;40915;50.826;4.356;2022-11-20T06:51:44;69.23;;;27.67;;
25627;SDS011;40915;50.826;4.356;2022-11-20T06:54:10;66.13;;;27.57;;
25627;SDS011;40915;50.826;4.356;2022-11-20T06:56:36;60.17;;;26.27;;
25627;SDS011;40915;50.826;4.356;2022-11-20T06:59:06;60.87;;;27.67;;
25627;SDS011;40915;50.826;4.356;2022-11-20T07:01:32;67.67;;;27.13;;
25627;SDS011;40915;50.826;4.356;2022-11-20T07:03:58;58.37;;;25.63;;
25627;SDS011;40915;50.826;4.356;2022-11-20T07:06:24;66.40;;;28.13;;
25627;SDS011;40915;50.826;4.356;2022-11-20T07:08:50;60.23;;;26.00;;
25627;SDS011;40915;50.826;4.356;2022-11-20T07:11:19;59.63;;;26.80;;
25627;SDS011;40915;50.826;4.356;2022-11-20T07:13:45;61.93;;;26.43;;
25627;SDS011;40915;50.826;4.356;2022-11-20T07:16:11;60.47;;;26.60;;
25627;SDS011;40915;50.826;4.356;2022-11-20T07:18:37;63.00;;;25.70;;
25627;SDS011;40915;50.826;4.356;2022-11-20T07:21:04;59.77;;;26.27;;
25627;SDS011;40915;50.826;4.356;2022-11-20T07:23:30;56.80;;;24.80;;
25627;SDS011;40915;50.826;4.356;2022-11-20T07:25:56;54.00;;;24.10;;
25627;SDS011;40915;50.826;4.356;2022-11-20T07:28:22;55.27;;;24.93;;
25627;SDS011;40915;50.826;4.356;2022-11-20T07:30:49;56.00;;;24.50;;
25627;SDS011;40915;50.826;4.356;2022-11-20T07:33:15;59.77;;;24.80;;
25627;SDS011;40915;50.826;4.356;2022-11-20T07:35:41;60.37;;;25.67;;
25627;SDS011;40915;50.826;4.356;2022-11-20T07:38:07;54.40;;;23.27;;
25627;SDS011;40915;50.826;4.356;2022-11-20T07:40:33;60.37;;;24.90;;
25627;SDS011;40915;50.826;4.356;2022-11-20T07:42:59;57.83;;;23.30;;
25627;SDS011;40915;50.826;4.356;2022-11-20T07:45:25;58.23;;;24.17;;
25627;SDS011;40915;50.826;4.356;2022-11-20T07:47:51;67.13;;;27.00;;
25627;SDS011;40915;50.826;4.356;2022-11-20T07:50:18;66.07;;;26.70;;
25627;SDS011;40915;50.826;4.356;2022-11-20T07:52:44;72.00;;;25.33;;
25627;SDS011;40915;50.826;4.356;2022-11-20T07:55:10;66.83;;;26.23;;
25627;SDS011;40915;50.826;4.356;2022-11-20T07:57:36;75.00;;;33.43;;
25627;SDS011;40915;50.826;4.356;2022-11-20T08:00:03;64.63;;;27.07;;
25627;SDS011;40915;50.826;4.356;2022-11-20T08:02:30;61.50;;;24.93;;
25627;SDS011;40915;50.826;4.356;2022-11-20T08:04:56;65.80;;;25.97;;
25627;SDS011;40915;50.826;4.356;2022-11-20T08:07:22;66.40;;;26.57;;
25627;SDS011;40915;50.826;4.356;2022-11-20T08:09:48;63.77;;;25.00;;
25627;SDS011;40915;50.826;4.356;2022-11-20T08:12:20;60.80;;;24.60;;
25627;SDS011;40915;50.826;4.356;2022-11-20T08:15:05;64.77;;;25.17;;
25627;SDS011;40915;50.826;4.356;2022-11-20T08:17:31;63.03;;;25.47;;
25627;SDS011;40915;50.826;4.356;2022-11-20T08:19:57;56.90;;;24.27;;
25627;SDS011;40915;50.826;4.356;2022-11-20T08:22:23;65.03;;;24.93;;
25627;SDS011;40915;50.826;4.356;2022-11-20T08:24:50;60.77;;;24.33;;
25627;SDS011;40915;50.826;4.356;2022-11-20T08:27:16;60.97;;;25.03;;
25627;SDS011;40915;50.826;4.356;2022-11-20T08:29:42;65.10;;;25.40;;
25627;SDS011;40915;50.826;4.356;2022-11-20T08:32:08;62.73;;;26.37;;
25627;SDS011;40915;50.826;4.356;2022-11-20T08:34:34;60.77;;;25.13;;
25627;SDS011;40915;50.826;4.356;2022-11-20T08:37:01;61.63;;;24.80;;
25627;SDS011;40915;50.826;4.356;2022-11-20T08:39:27;70.00;;;25.97;;
25627;SDS011;40915;50.826;4.356;2022-11-20T08:41:53;61.13;;;24.57;;
25627;SDS011;40915;50.826;4.356;2022-11-20T08:44:19;54.17;;;23.37;;
25627;SDS011;40915;50.826;4.356;2022-11-20T08:46:45;57.97;;;24.00;;
25627;SDS011;40915;50.826;4.356;2022-11-20T08:49:12;56.40;;;23.63;;
25627;SDS011;40915;50.826;4.356;2022-11-20T08:51:39;57.50;;;23.50;;
25627;SDS011;40915;50.826;4.356;2022-11-20T08:54:05;57.83;;;22.97;;
25627;SDS011;40915;50.826;4.356;2022-11-20T08:56:32;53.63;;;22.97;;
25627;SDS011;40915;50.826;4.356;2022-11-20T08:58:58;52.47;;;22.60;;
25627;SDS011;40915;50.826;4.356;2022-11-20T09:01:24;53.10;;;22.60;;
25627;SDS011;40915;50.826;4.356;2022-11-20T09:03:50;55.30;;;23.53;;
25627;SDS011;40915;50.826;4.356;2022-11-20T09:06:17;52.77;;;23.57;;
25627;SDS011;40915;50.826;4.356;2022-11-20T09:08:43;52.10;;;22.37;;
25627;SDS011;40915;50.826;4.356;2022-11-20T09:11:09;45.97;;;21.07;;
25627;SDS011;40915;50.826;4.356;2022-11-20T09:13:35;48.53;;;21.80;;
25627;SDS011;40915;50.826;4.356;2022-11-20T09:16:05;49.17;;;21.13;;
25627;SDS011;40915;50.826;4.356;2022-11-20T09:18:32;43.60;;;20.77;;
25627;SDS011;40915;50.826;4.356;2022-11-20T09:20:59;43.13;;;21.37;;
25627;SDS011;40915;50.826;4.356;2022-11-20T09:23:26;51.97;;;23.13;;
25627;SDS011;40915;50.826;4.356;2022-11-20T09:25:52;52.20;;;21.63;;
25627;SDS011;40915;50.826;4.356;2022-11-20T09:28:20;42.37;;;20.63;;
25627;SDS011;40915;50.826;4.356;2022-11-20T09:30:46;41.47;;;20.00;;
25627;SDS011;40915;50.826;4.356;2022-11-20T09:33:12;43.30;;;20.33;;
25627;SDS011;40915;50.826;4.356;2022-11-20T09:35:38;39.13;;;19.60;;
25627;SDS011;40915;50.826;4.356;2022-11-20T09:38:07;40.13;;;19.37;;
25627;SDS011;40915;50.826;4.356;2022-11-20T09:40:35;41.33;;;18.40;;
25627;SDS011;40915;50.826;4.356;2022-11-20T09:43:10;37.93;;;18.13;;
25627;SDS011;40915;50.826;4.356;2022-11-20T09:45:50;39.70;;;18.47;;
25627;SDS011;40915;50.826;4.356;2022-11-20T09:48:31;32.47;;;16.33;;
25627;SDS011;40915;50.826;4.356;2022-11-20T09:56:03;31.10;;;15.43;;
25627;SDS011;40915;50.826;4.356;2022-11-20T09:58:31;30.03;;;14.53;;
25627;SDS011;40915;50.826;4.356;2022-11-20T10:01:02;24.53;;;12.63;;
25627;SDS011;40915;50.826;4.356;2022-11-20T10:03:36;25.13;;;12.97;;
25627;SDS011;40915;50.826;4.356;2022-11-20T10:06:04;23.23;;;12.20;;
25627;SDS011;40915;50.826;4.356;2022-11-20T10:08:51;23.40;;;11.87;;
25627;SDS011;40915;50.826;4.356;2022-11-20T10:16:40;23.87;;;10.93;;
25627;SDS011;40915;50.826;4.356;2022-11-20T10:19:22;22.93;;;10.20;;
25627;SDS011;40915;50.826;4.356;2022-11-20T10:24:26;16.20;;;8.40;;
25627;SDS011;40915;50.826;4.356;2022-11-20T10:29:27;20.13;;;9.37;;
25627;SDS011;40915;50.826;4.356;2022-11-20T10:31:56;14.27;;;7.90;;
25627;SDS011;40915;50.826;4.356;2022-11-20T10:34:27;18.10;;;8.63;;
25627;SDS011;40915;50.826;4.356;2022-11-20T10:36:58;11.40;;;6.60;;
25627;SDS011;40915;50.826;4.356;2022-11-20T10:42:03;13.27;;;7.03;;
25627;SDS011;40915;50.826;4.356;2022-11-20T10:44:34;12.80;;;5.97;;
25627;SDS011;40915;50.826;4.356;2022-11-20T10:47:20;11.43;;;5.53;;
25627;SDS011;40915;50.826;4.356;2022-11-20T10:49:48;11.00;;;5.93;;
25627;SDS011;40915;50.826;4.356;2022-11-20T10:52:24;16.73;;;6.10;;
25627;SDS011;40915;50.826;4.356;2022-11-20T10:57:41;12.10;;;5.13;;
25627;SDS011;40915;50.826;4.356;2022-11-20T11:00:12;13.07;;;4.80;;
25627;SDS011;40915;50.826;4.356;2022-11-20T11:07:46;9.40;;;3.87;;
25627;SDS011;40915;50.826;4.356;2022-11-20T11:12:42;9.97;;;3.70;;
25627;SDS011;40915;50.826;4.356;2022-11-20T11:15:13;9.23;;;3.77;;
25627;SDS011;40915;50.826;4.356;2022-11-20T11:17:46;6.00;;;3.55;;
25627;SDS011;40915;50.826;4.356;2022-11-20T11:20:16;8.17;;;3.20;;
25627;SDS011;40915;50.826;4.356;2022-11-20T11:22:44;9.73;;;3.03;;
25627;SDS011;40915;50.826;4.356;2022-11-20T11:25:29;6.23;;;3.23;;
25627;SDS011;40915;50.826;4.356;2022-11-20T11:28:01;8.13;;;3.00;;
25627;SDS011;40915;50.826;4.356;2022-11-20T11:30:28;7.97;;;2.70;;
25627;SDS011;40915;50.826;4.356;2022-11-20T11:33:05;8.15;;;3.50;;
25627;SDS011;40915;50.826;4.356;2022-11-20T11:35:31;10.33;;;3.20;;
25627;SDS011;40915;50.826;4.356;2022-11-20T11:38:05;8.77;;;3.50;;
25627;SDS011;40915;50.826;4.356;2022-11-20T11:40:35;7.50;;;3.37;;
25627;SDS011;40915;50.826;4.356;2022-11-20T11:43:05;6.67;;;3.43;;
25627;SDS011;40915;50.826;4.356;2022-11-20T11:45:54;6.37;;;3.23;;
25627;SDS011;40915;50.826;4.356;2022-11-20T11:48:21;6.33;;;3.10;;
25627;SDS011;40915;50.826;4.356;2022-11-20T11:50:48;6.67;;;3.00;;
25627;SDS011;40915;50.826;4.356;2022-11-20T11:53:16;6.33;;;2.93;;
25627;SDS011;40915;50.826;4.356;2022-11-20T12:03:50;7.43;;;3.20;;
25627;SDS011;40915;50.826;4.356;2022-11-20T12:06:18;5.43;;;2.90;;
25627;SDS011;40915;50.826;4.356;2022-11-20T12:13:52;7.73;;;2.90;;
25627;SDS011;40915;50.826;4.356;2022-11-20T12:16:19;6.63;;;3.17;;
25627;SDS011;40915;50.826;4.356;2022-11-20T12:18:50;8.80;;;2.90;;
25627;SDS011;40915;50.826;4.356;2022-11-20T12:30:01;6.40;;;3.27;;
25627;SDS011;40915;50.826;4.356;2022-11-20T12:40:12;8.27;;;3.20;;
25627;SDS011;40915;50.826;4.356;2022-11-20T12:43:27;6.47;;;3.37;;
25627;SDS011;40915;50.826;4.356;2022-11-20T12:53:41;9.03;;;3.47;;
25627;SDS011;40915;50.826;4.356;2022-11-20T13:06:34;10.53;;;3.70;;
25627;SDS011;40915;50.826;4.356;2022-11-20T13:09:00;7.73;;;3.20;;
25627;SDS011;40915;50.826;4.356;2022-11-20T13:11:32;7.07;;;3.00;;
25627;SDS011;40915;50.826;4.356;2022-11-20T13:16:50;5.57;;;3.17;;
25627;SDS011;40915;50.826;4.356;2022-11-20T13:19:18;9.27;;;3.00;;
25627;SDS011;40915;50.826;4.356;2022-11-20T13:21:45;5.80;;;3.40;;
25627;SDS011;40915;50.826;4.356;2022-11-20T13:24:22;7.93;;;3.20;;
25627;SDS011;40915;50.826;4.356;2022-11-20T13:29:36;6.30;;;3.40;;
25627;SDS011;40915;50.826;4.356;2022-11-20T13:32:20;6.90;;;3.17;;
25627;SDS011;40915;50.826;4.356;2022-11-20T13:34:57;7.80;;;3.30;;
25627;SDS011;40915;50.826;4.356;2022-11-20T13:37:28;6.23;;;3.43;;
25627;SDS011;40915;50.826;4.356;2022-11-20T13:40:05;5.00;;;2.80;;
25627;SDS011;40915;50.826;4.356;2022-11-20T13:42:31;4.50;;;2.93;;
25627;SDS011;40915;50.826;4.356;2022-11-20T13:45:02;5.97;;;3.67;;
25627;SDS011;40915;50.826;4.356;2022-11-20T13:47:28;5.07;;;2.93;;
25627;SDS011;40915;50.826;4.356;2022-11-20T13:49:55;6.33;;;3.80;;
25627;SDS011;40915;50.826;4.356;2022-11-20T14:00:23;5.53;;;2.80;;
25627;SDS011;40915;50.826;4.356;2022-11-20T14:02:58;6.33;;;2.67;;
25627;SDS011;40915;50.826;4.356;2022-11-20T14:05:25;3.90;;;2.33;;
25627;SDS011;40915;50.826;4.356;2022-11-20T14:07:51;5.60;;;2.70;;
25627;SDS011;40915;50.826;4.356;2022-11-20T14:10:28;3.57;;;2.60;;
25627;SDS011;40915;50.826;4.356;2022-11-20T14:12:54;2.97;;;2.10;;
25627;SDS011;40915;50.826;4.356;2022-11-20T14:15:24;2.97;;;2.23;;
25627;SDS011;40915;50.826;4.356;2022-11-20T14:17:51;5.43;;;2.60;;
25627;SDS011;40915;50.826;4.356;2022-11-20T14:20:17;5.87;;;2.60;;
25627;SDS011;40915;50.826;4.356;2022-11-20T14:22:51;6.43;;;4.40;;
25627;SDS011;40915;50.826;4.356;2022-11-20T14:25:20;3.30;;;2.30;;
25627;SDS011;40915;50.826;4.356;2022-11-20T14:27:50;3.83;;;2.47;;
25627;SDS011;40915;50.826;4.356;2022-11-20T14:30:21;6.93;;;2.53;;
25627;SDS011;40915;50.826;4.356;2022-11-20T14:32:48;3.40;;;2.33;;
25627;SDS011;40915;50.826;4.356;2022-11-20T14:35:57;3.90;;;2.50;;
25627;SDS011;40915;50.826;4.356;2022-11-20T14:38:03;3.57;;;2.27;;
25627;SDS011;40915;50.826;4.356;2022-11-20T14:40:33;3.83;;;2.80;;
25627;SDS011;40915;50.826;4.356;2022-11-20T14:43:00;4.77;;;2.50;;
25627;SDS011;40915;50.826;4.356;2022-11-20T14:45:27;3.93;;;2.70;;
25627;SDS011;40915;50.826;4.356;2022-11-20T14:47:55;4.10;;;2.40;;
25627;SDS011;40915;50.826;4.356;2022-11-20T14:50:26;2.97;;;2.20;;
25627;SDS011;40915;50.826;4.356;2022-11-20T14:52:53;6.27;;;2.57;;
25627;SDS011;40915;50.826;4.356;2022-11-20T14:55:26;4.20;;;2.53;;
25627;SDS011;40915;50.826;4.356;2022-11-20T14:57:57;4.47;;;2.87;;
25627;SDS011;40915;50.826;4.356;2022-11-20T15:00:23;6.47;;;3.13;;
25627;SDS011;40915;50.826;4.356;2022-11-20T15:02:50;5.57;;;2.70;;
25627;SDS011;40915;50.826;4.356;2022-11-20T15:05:18;4.70;;;2.70;;
25627;SDS011;40915;50.826;4.356;2022-11-20T15:07:45;3.13;;;2.23;;
25627;SDS011;40915;50.826;4.356;2022-11-20T15:10:13;4.63;;;2.30;;
25627;SDS011;40915;50.826;4.356;2022-11-20T15:12:47;5.53;;;3.27;;
25627;SDS011;40915;50.826;4.356;2022-11-20T15:18:02;4.43;;;2.77;;
25627;SDS011;40915;50.826;4.356;2022-11-20T15:20:30;3.77;;;3.10;;
25627;SDS011;40915;50.826;4.356;2022-11-20T15:22:56;6.53;;;3.10;;
25627;SDS011;40915;50.826;4.356;2022-11-20T15:25:26;8.37;;;6.13;;
25627;SDS011;40915;50.826;4.356;2022-11-20T15:28:02;8.70;;;3.70;;
25627;SDS011;40915;50.826;4.356;2022-11-20T15:30:28;5.47;;;3.60;;
25627;SDS011;40915;50.826;4.356;2022-11-20T15:32:55;6.70;;;3.80;;
25627;SDS011;40915;50.826;4.356;2022-11-20T15:35:21;6.40;;;3.63;;
25627;SDS011;40915;50.826;4.356;2022-11-20T15:37:47;7.40;;;3.80;;
25627;SDS011;40915;50.826;4.356;2022-11-20T15:40:13;7.90;;;3.50;;
25627;SDS011;40915;50.826;4.356;2022-11-20T15:42:39;7.57;;;3.33;;
25627;SDS011;40915;50.826;4.356;2022-11-20T15:45:25;11.17;;;4.37;;
25627;SDS011;40915;50.826;4.356;2022-11-20T15:47:54;10.83;;;4.40;;
25627;SDS011;40915;50.826;4.356;2022-11-20T15:50:22;5.43;;;3.50;;
25627;SDS011;40915;50.826;4.356;2022-11-20T15:52:54;6.87;;;3.93;;
25627;SDS011;40915;50.826;4.356;2022-11-20T15:55:20;8.00;;;3.60;;
25627;SDS011;40915;50.826;4.356;2022-11-20T15:57:46;9.67;;;3.80;;
25627;SDS011;40915;50.826;4.356;2022-11-20T16:00:19;8.60;;;3.10;;
25627;SDS011;40915;50.826;4.356;2022-11-20T16:02:45;11.27;;;4.13;;
25627;SDS011;40915;50.826;4.356;2022-11-20T16:05:11;7.13;;;4.00;;
25627;SDS011;40915;50.826;4.356;2022-11-20T16:07:37;8.40;;;3.27;;
25627;SDS011;40915;50.826;4.356;2022-11-20T16:10:04;9.93;;;2.97;;